createdAt,value
2023-02-25T00:00:30.388Z,1001.26
2023-02-25T00:01:30.397Z,1001.26
2023-02-25T00:02:30.408Z,1001.28
2023-02-25T00:03:30.394Z,1001.33
2023-02-25T00:04:30.360Z,1001.35
2023-02-25T00:05:31.709Z,1001.39
2023-02-25T00:06:30.348Z,1001.38
2023-02-25T00:07:32.145Z,1001.36
2023-02-25T00:08:30.333Z,1001.44
2023-02-25T00:09:30.323Z,1001.42
2023-02-25T00:10:30.318Z,1001.33
2023-02-25T00:11:30.319Z,1001.36
2023-02-25T00:12:30.305Z,1001.36
2023-02-25T00:13:30.305Z,1001.39
2023-02-25T00:14:30.324Z,1001.40
2023-02-25T00:15:30.283Z,1001.38
2023-02-25T00:16:30.362Z,1001.35
2023-02-25T00:17:30.270Z,1001.32
2023-02-25T00:18:30.264Z,1001.35
2023-02-25T00:19:30.255Z,1001.31
2023-02-25T00:20:30.250Z,1001.29
2023-02-25T00:21:30.246Z,1001.28
2023-02-25T00:22:30.245Z,1001.26
2023-02-25T00:23:30.229Z,1001.25
2023-02-25T00:24:30.224Z,1001.29
2023-02-25T00:25:30.220Z,1001.30
2023-02-25T00:26:30.210Z,1001.35
2023-02-25T00:27:30.201Z,1001.32
2023-02-25T00:28:30.215Z,1001.33
2023-02-25T00:29:30.191Z,1001.30
2023-02-25T00:30:30.206Z,1001.30
2023-02-25T00:31:30.286Z,1001.26
2023-02-25T00:32:30.271Z,1001.28
2023-02-25T00:33:30.171Z,1001.27
2023-02-25T00:34:30.163Z,1001.31
2023-02-25T00:35:30.153Z,1001.35
2023-02-25T00:36:30.146Z,1001.35
2023-02-25T00:37:30.140Z,1001.30
2023-02-25T00:38:30.135Z,1001.31
2023-02-25T00:39:30.222Z,1001.36
2023-02-25T00:40:30.124Z,1001.34
2023-02-25T00:41:30.119Z,1001.31
2023-02-25T00:42:30.111Z,1001.26
2023-02-25T00:43:30.107Z,1001.24
2023-02-25T00:44:30.097Z,1001.22
2023-02-25T00:45:30.088Z,1001.21
2023-02-25T00:46:30.204Z,1001.22
2023-02-25T00:47:30.076Z,1001.24
2023-02-25T00:48:30.078Z,1001.24
2023-02-25T00:49:32.389Z,1001.25
2023-02-25T00:50:30.057Z,1001.22
2023-02-25T00:51:30.087Z,1001.19
2023-02-25T00:52:30.046Z,1001.15
2023-02-25T00:53:30.033Z,1001.21
2023-02-25T00:54:30.032Z,1001.21
2023-02-25T00:55:30.520Z,1001.25
2023-02-25T00:56:30.033Z,1001.23
2023-02-25T00:57:30.014Z,1001.27
2023-02-25T00:58:30.001Z,1001.28
2023-02-25T00:59:30.002Z,1001.27
2023-02-25T01:00:30.602Z,1001.27
2023-02-25T01:01:30.027Z,1001.26
2023-02-25T01:02:30.065Z,1001.29
2023-02-25T01:03:29.968Z,1001.24
2023-02-25T01:04:29.977Z,1001.25
2023-02-25T01:05:29.972Z,1001.19
2023-02-25T01:06:29.966Z,1001.22
2023-02-25T01:07:29.941Z,1001.27
2023-02-25T01:08:29.931Z,1001.23
2023-02-25T01:09:29.927Z,1001.19
2023-02-25T01:10:29.922Z,1001.27
2023-02-25T01:11:29.913Z,1001.26
2023-02-25T01:12:29.905Z,1001.21
2023-02-25T01:13:29.939Z,1001.24
2023-02-25T01:14:29.914Z,1001.26
2023-02-25T01:15:29.890Z,1001.27
2023-02-25T01:16:29.945Z,1001.28
2023-02-25T01:17:29.881Z,1001.27
2023-02-25T01:18:29.881Z,1001.33
2023-02-25T01:19:29.861Z,1001.35
2023-02-25T01:20:29.880Z,1001.30
2023-02-25T01:21:29.854Z,1001.33
2023-02-25T01:22:29.843Z,1001.30
2023-02-25T01:23:29.828Z,1001.28
2023-02-25T01:24:29.827Z,1001.27
2023-02-25T01:25:29.819Z,1001.32
2023-02-25T01:26:29.811Z,1001.35
2023-02-25T01:27:29.802Z,1001.37
2023-02-25T01:28:29.793Z,1001.36
2023-02-25T01:29:29.785Z,1001.39
2023-02-25T01:30:29.781Z,1001.37
2023-02-25T01:31:30.054Z,1001.42
2023-02-25T01:32:29.965Z,1001.39
2023-02-25T01:33:29.762Z,1001.42
2023-02-25T01:34:29.772Z,1001.44
2023-02-25T01:35:29.747Z,1001.45
2023-02-25T01:36:29.745Z,1001.45
2023-02-25T01:37:29.739Z,1001.42
2023-02-25T01:38:29.732Z,1001.39
2023-02-25T01:39:29.724Z,1001.45
2023-02-25T01:40:29.718Z,1001.41
2023-02-25T01:41:29.712Z,1001.44
2023-02-25T01:42:29.711Z,1001.42
2023-02-25T01:43:29.701Z,1001.38
2023-02-25T01:44:29.694Z,1001.36
2023-02-25T01:45:29.684Z,1001.36
2023-02-25T01:46:29.718Z,1001.41
2023-02-25T01:47:29.672Z,1001.37
2023-02-25T01:48:29.669Z,1001.40
2023-02-25T01:49:29.656Z,1001.36
2023-02-25T01:50:29.670Z,1001.37
2023-02-25T01:51:29.648Z,1001.35
2023-02-25T01:52:29.636Z,1001.35
2023-02-25T01:53:29.627Z,1001.36
2023-02-25T01:54:29.623Z,1001.42
2023-02-25T01:55:29.616Z,1001.41
2023-02-25T01:56:29.613Z,1001.48
2023-02-25T01:57:29.602Z,1001.41
2023-02-25T01:58:29.602Z,1001.41
2023-02-25T01:59:29.593Z,1001.43
2023-02-25T02:00:30.075Z,1001.42
2023-02-25T02:01:29.577Z,1001.45
2023-02-25T02:02:29.714Z,1001.50
2023-02-25T02:03:29.563Z,1001.40
2023-02-25T02:04:29.571Z,1001.44
2023-02-25T02:05:29.548Z,1001.43
2023-02-25T02:06:29.568Z,1001.42
2023-02-25T02:07:29.536Z,1001.40
2023-02-25T02:08:29.531Z,1001.42
2023-02-25T02:09:29.525Z,1001.41
2023-02-25T02:10:29.519Z,1001.38
2023-02-25T02:11:29.507Z,1001.38
2023-02-25T02:12:29.502Z,1001.40
2023-02-25T02:13:29.494Z,1001.42
2023-02-25T02:14:29.490Z,1001.41
2023-02-25T02:15:29.481Z,1001.42
2023-02-25T02:16:29.517Z,1001.41
2023-02-25T02:17:30.388Z,1001.40
2023-02-25T02:18:29.462Z,1001.41
2023-02-25T02:19:29.452Z,1001.40
2023-02-25T02:20:29.451Z,1001.42
2023-02-25T02:21:29.439Z,1001.39
2023-02-25T02:22:29.453Z,1001.35
2023-02-25T02:23:29.426Z,1001.32
2023-02-25T02:24:29.420Z,1001.38
2023-02-25T02:25:29.415Z,1001.36
2023-02-25T02:26:29.409Z,1001.36
2023-02-25T02:27:29.399Z,1001.41
2023-02-25T02:28:29.391Z,1001.39
2023-02-25T02:29:29.384Z,1001.44
2023-02-25T02:30:29.417Z,1001.43
2023-02-25T02:31:29.388Z,1001.45
2023-02-25T02:32:29.440Z,1001.46
2023-02-25T02:33:29.363Z,1001.48
2023-02-25T02:34:29.359Z,1001.45
2023-02-25T02:35:29.439Z,1001.50
2023-02-25T02:36:29.339Z,1001.53
2023-02-25T02:37:29.339Z,1001.51
2023-02-25T02:38:29.356Z,1001.50
2023-02-25T02:39:29.315Z,1001.45
2023-02-25T02:40:29.321Z,1001.48
2023-02-25T02:41:29.319Z,1001.41
2023-02-25T02:42:29.299Z,1001.38
2023-02-25T02:43:29.297Z,1001.38
2023-02-25T02:44:29.286Z,1001.39
2023-02-25T02:45:29.449Z,1001.40
2023-02-25T02:46:29.270Z,1001.39
2023-02-25T02:47:29.264Z,1001.37
2023-02-25T02:48:29.257Z,1001.35
2023-02-25T02:49:29.250Z,1001.35
2023-02-25T02:50:29.239Z,1001.33
2023-02-25T02:51:29.236Z,1001.35
2023-02-25T02:52:29.229Z,1001.34
2023-02-25T02:53:29.214Z,1001.32
2023-02-25T02:54:29.233Z,1001.33
2023-02-25T02:55:29.288Z,1001.35
2023-02-25T02:56:29.197Z,1001.31
2023-02-25T02:57:29.189Z,1001.33
2023-02-25T02:58:29.182Z,1001.34
2023-02-25T02:59:29.240Z,1001.34
2023-02-25T03:00:29.620Z,1001.35
2023-02-25T03:01:29.368Z,1001.36
2023-02-25T03:02:29.155Z,1001.37
2023-02-25T03:03:29.144Z,1001.36
2023-02-25T03:04:29.154Z,1001.29
2023-02-25T03:05:29.236Z,1001.33
2023-02-25T03:06:29.132Z,1001.35
2023-02-25T03:07:29.117Z,1001.38
2023-02-25T03:08:29.122Z,1001.37
2023-02-25T03:09:29.107Z,1001.35
2023-02-25T03:10:29.174Z,1001.35
2023-02-25T03:11:29.092Z,1001.34
2023-02-25T03:12:29.084Z,1001.41
2023-02-25T03:13:29.077Z,1001.41
2023-02-25T03:14:29.073Z,1001.41
2023-02-25T03:15:29.201Z,1001.45
2023-02-25T03:16:29.123Z,1001.42
2023-02-25T03:17:29.053Z,1001.40
2023-02-25T03:18:29.045Z,1001.43
2023-02-25T03:19:29.036Z,1001.41
2023-02-25T03:20:29.192Z,1001.44
2023-02-25T03:21:29.025Z,1001.47
2023-02-25T03:22:29.021Z,1001.49
2023-02-25T03:23:29.032Z,1001.49
2023-02-25T03:24:29.019Z,1001.47
2023-02-25T03:25:29.070Z,1001.45
2023-02-25T03:26:29.021Z,1001.48
2023-02-25T03:27:28.999Z,1001.52
2023-02-25T03:28:28.987Z,1001.53
2023-02-25T03:29:28.980Z,1001.53
2023-02-25T03:30:29.063Z,1001.51
2023-02-25T03:31:28.989Z,1001.51
2023-02-25T03:32:29.094Z,1001.56
2023-02-25T03:33:28.947Z,1001.54
2023-02-25T03:34:28.946Z,1001.55
2023-02-25T03:35:28.936Z,1001.56
2023-02-25T03:36:28.932Z,1001.57
2023-02-25T03:37:28.927Z,1001.57
2023-02-25T03:38:28.927Z,1001.58
2023-02-25T03:39:28.920Z,1001.59
2023-02-25T03:40:28.997Z,1001.62
2023-02-25T03:41:28.895Z,1001.62
2023-02-25T03:42:28.929Z,1001.62
2023-02-25T03:43:28.885Z,1001.60
2023-02-25T03:44:28.875Z,1001.60
2023-02-25T03:45:28.877Z,1001.62
2023-02-25T03:46:28.904Z,1001.64
2023-02-25T03:47:28.905Z,1001.56
2023-02-25T03:48:28.850Z,1001.62
2023-02-25T03:49:28.846Z,1001.61
2023-02-25T03:50:28.838Z,1001.57
2023-02-25T03:51:28.838Z,1001.60
2023-02-25T03:52:28.826Z,1001.62
2023-02-25T03:53:28.815Z,1001.60
2023-02-25T03:54:28.807Z,1001.60
2023-02-25T03:55:28.824Z,1001.65
2023-02-25T03:56:28.793Z,1001.68
2023-02-25T03:57:28.784Z,1001.72
2023-02-25T03:58:28.809Z,1001.68
2023-02-25T03:59:28.788Z,1001.67
2023-02-25T04:00:28.823Z,1001.64
2023-02-25T04:01:28.761Z,1001.67
2023-02-25T04:02:28.785Z,1001.69
2023-02-25T04:03:28.740Z,1001.66
2023-02-25T04:04:28.776Z,1001.65
2023-02-25T04:05:28.723Z,1001.70
2023-02-25T04:06:28.723Z,1001.74
2023-02-25T04:07:28.713Z,1001.71
2023-02-25T04:08:28.712Z,1001.69
2023-02-25T04:09:28.718Z,1001.70
2023-02-25T04:10:28.775Z,1001.70
2023-02-25T04:11:28.697Z,1001.74
2023-02-25T04:12:28.703Z,1001.70
2023-02-25T04:13:28.676Z,1001.72
2023-02-25T04:14:28.686Z,1001.69
2023-02-25T04:15:28.709Z,1001.70
2023-02-25T04:16:28.653Z,1001.75
2023-02-25T04:17:28.653Z,1001.77
2023-02-25T04:18:28.634Z,1001.74
2023-02-25T04:19:28.632Z,1001.78
2023-02-25T04:20:28.623Z,1001.79
2023-02-25T04:21:28.622Z,1001.82
2023-02-25T04:22:28.608Z,1001.90
2023-02-25T04:23:28.606Z,1001.88
2023-02-25T04:24:28.601Z,1001.92
2023-02-25T04:25:28.593Z,1001.91
2023-02-25T04:26:28.583Z,1001.90
2023-02-25T04:27:28.579Z,1001.90
2023-02-25T04:28:28.573Z,1001.95
2023-02-25T04:29:28.561Z,1001.93
2023-02-25T04:30:28.602Z,1001.95
2023-02-25T04:31:28.680Z,1001.98
2023-02-25T04:32:28.669Z,1001.96
2023-02-25T04:33:28.535Z,1001.99
2023-02-25T04:34:28.527Z,1001.95
2023-02-25T04:35:28.524Z,1001.95
2023-02-25T04:36:28.515Z,1001.93
2023-02-25T04:37:28.515Z,1001.93
2023-02-25T04:38:28.498Z,1001.94
2023-02-25T04:39:28.496Z,1001.92
2023-02-25T04:40:28.486Z,1001.91
2023-02-25T04:41:28.481Z,1001.88
2023-02-25T04:42:28.473Z,1001.91
2023-02-25T04:43:28.467Z,1001.89
2023-02-25T04:44:28.460Z,1001.88
2023-02-25T04:45:28.449Z,1001.89
2023-02-25T04:46:28.545Z,1001.91
2023-02-25T04:47:28.437Z,1001.91
2023-02-25T04:48:28.430Z,1001.92
2023-02-25T04:49:28.428Z,1001.93
2023-02-25T04:50:28.436Z,1001.90
2023-02-25T04:51:28.427Z,1001.89
2023-02-25T04:52:28.401Z,1001.88
2023-02-25T04:53:28.409Z,1001.83
2023-02-25T04:54:28.401Z,1001.83
2023-02-25T04:55:28.383Z,1001.85
2023-02-25T04:56:28.384Z,1001.83
2023-02-25T04:57:28.373Z,1001.87
2023-02-25T04:58:28.365Z,1001.82
2023-02-25T04:59:28.361Z,1001.87
2023-02-25T05:00:28.351Z,1001.87
2023-02-25T05:01:28.410Z,1001.91
2023-02-25T05:02:28.350Z,1001.91
2023-02-25T05:03:28.333Z,1001.82
2023-02-25T05:04:28.414Z,1001.80
2023-02-25T05:05:28.573Z,1001.82
2023-02-25T05:06:28.317Z,1001.91
2023-02-25T05:07:28.303Z,1001.90
2023-02-25T05:08:28.294Z,1001.91
2023-02-25T05:09:28.297Z,1001.92
2023-02-25T05:10:28.279Z,1001.83
2023-02-25T05:11:28.290Z,1001.83
2023-02-25T05:12:28.275Z,1001.87
2023-02-25T05:13:28.269Z,1001.80
2023-02-25T05:14:28.260Z,1001.79
2023-02-25T05:15:28.253Z,1001.82
2023-02-25T05:16:28.332Z,1001.81
2023-02-25T05:17:28.235Z,1001.82
2023-02-25T05:18:28.274Z,1001.86
2023-02-25T05:19:28.252Z,1001.83
2023-02-25T05:20:28.262Z,1001.82
2023-02-25T05:21:28.222Z,1001.79
2023-02-25T05:22:28.278Z,1001.82
2023-02-25T05:23:28.194Z,1001.88
2023-02-25T05:24:28.184Z,1001.85
2023-02-25T05:25:28.179Z,1001.78
2023-02-25T05:26:28.181Z,1001.71
2023-02-25T05:27:28.173Z,1001.70
2023-02-25T05:28:28.168Z,1001.70
2023-02-25T05:29:28.206Z,1001.77
2023-02-25T05:30:28.169Z,1001.80
2023-02-25T05:31:28.301Z,1001.79
2023-02-25T05:32:28.263Z,1001.75
2023-02-25T05:33:28.152Z,1001.79
2023-02-25T05:34:28.137Z,1001.81
2023-02-25T05:35:28.119Z,1001.82
2023-02-25T05:36:28.747Z,1001.80
2023-02-25T05:37:28.097Z,1001.80
2023-02-25T05:38:28.101Z,1001.86
2023-02-25T05:39:28.094Z,1001.89
2023-02-25T05:40:28.103Z,1001.90
2023-02-25T05:41:28.074Z,1001.90
2023-02-25T05:42:28.063Z,1001.88
2023-02-25T05:43:28.058Z,1001.85
2023-02-25T05:44:28.049Z,1001.87
2023-02-25T05:45:28.050Z,1001.89
2023-02-25T05:46:28.252Z,1001.89
2023-02-25T05:47:28.047Z,1001.88
2023-02-25T05:48:28.021Z,1001.87
2023-02-25T05:49:28.020Z,1001.88
2023-02-25T05:50:28.026Z,1001.90
2023-02-25T05:51:28.013Z,1001.85
2023-02-25T05:52:28.006Z,1001.77
2023-02-25T05:53:27.995Z,1001.81
2023-02-25T05:54:27.981Z,1001.82
2023-02-25T05:55:27.977Z,1001.81
2023-02-25T05:56:30.824Z,1001.87
2023-02-25T05:57:27.960Z,1001.89
2023-02-25T05:58:27.960Z,1001.95
2023-02-25T05:59:27.948Z,1001.95
2023-02-25T06:00:27.962Z,1001.92
2023-02-25T06:01:27.998Z,1002.01
2023-02-25T06:02:27.939Z,1002.04
2023-02-25T06:03:28.007Z,1002.01
2023-02-25T06:04:27.920Z,1001.99
2023-02-25T06:05:27.908Z,1002.04
2023-02-25T06:06:27.925Z,1002.02
2023-02-25T06:07:27.895Z,1002.04
2023-02-25T06:08:27.882Z,1002.07
2023-02-25T06:09:27.878Z,1002.09
2023-02-25T06:10:28.089Z,1002.13
2023-02-25T06:11:27.886Z,1002.09
2023-02-25T06:12:27.855Z,1002.09
2023-02-25T06:13:27.848Z,1002.08
2023-02-25T06:14:27.838Z,1002.07
2023-02-25T06:15:27.837Z,1002.05
2023-02-25T06:16:27.852Z,1002.04
2023-02-25T06:17:27.823Z,1002.05
2023-02-25T06:18:27.812Z,1001.99
2023-02-25T06:19:27.809Z,1001.95
2023-02-25T06:20:27.799Z,1002.03
2023-02-25T06:21:27.791Z,1001.99
2023-02-25T06:22:27.805Z,1002.01
2023-02-25T06:23:27.783Z,1002.05
2023-02-25T06:24:27.769Z,1002.05
2023-02-25T06:25:27.765Z,1002.09
2023-02-25T06:26:27.768Z,1002.08
2023-02-25T06:27:27.758Z,1002.09
2023-02-25T06:28:27.746Z,1002.09
2023-02-25T06:29:27.736Z,1002.11
2023-02-25T06:30:27.744Z,1002.12
2023-02-25T06:31:27.834Z,1002.14
2023-02-25T06:32:27.824Z,1002.18
2023-02-25T06:33:27.708Z,1002.25
2023-02-25T06:34:27.700Z,1002.32
2023-02-25T06:35:27.695Z,1002.29
2023-02-25T06:36:27.733Z,1002.31
2023-02-25T06:37:27.684Z,1002.29
2023-02-25T06:38:27.705Z,1002.30
2023-02-25T06:39:27.670Z,1002.33
2023-02-25T06:40:27.666Z,1002.29
2023-02-25T06:41:27.657Z,1002.31
2023-02-25T06:42:27.646Z,1002.31
2023-02-25T06:43:27.647Z,1002.32
2023-02-25T06:44:27.649Z,1002.30
2023-02-25T06:45:27.627Z,1002.34
2023-02-25T06:46:28.075Z,1002.32
2023-02-25T06:47:27.616Z,1002.36
2023-02-25T06:48:27.611Z,1002.36
2023-02-25T06:49:27.606Z,1002.42
2023-02-25T06:50:27.600Z,1002.46
2023-02-25T06:51:27.612Z,1002.47
2023-02-25T06:52:27.576Z,1002.46
2023-02-25T06:53:27.576Z,1002.45
2023-02-25T06:54:27.583Z,1002.46
2023-02-25T06:55:27.567Z,1002.44
2023-02-25T06:56:27.557Z,1002.44
2023-02-25T06:57:27.545Z,1002.46
2023-02-25T06:58:27.541Z,1002.49
2023-02-25T06:59:27.537Z,1002.46
2023-02-25T07:00:27.547Z,1002.50
2023-02-25T07:01:27.575Z,1002.48
2023-02-25T07:02:27.511Z,1002.49
2023-02-25T07:03:27.520Z,1002.48
2023-02-25T07:04:27.563Z,1002.43
2023-02-25T07:05:27.489Z,1002.44
2023-02-25T07:06:27.539Z,1002.44
2023-02-25T07:07:27.485Z,1002.41
2023-02-25T07:08:27.467Z,1002.45
2023-02-25T07:09:27.464Z,1002.49
2023-02-25T07:10:27.622Z,1002.57
2023-02-25T07:11:27.447Z,1002.52
2023-02-25T07:12:27.442Z,1002.56
2023-02-25T07:13:27.438Z,1002.62
2023-02-25T07:14:27.427Z,1002.64
2023-02-25T07:15:27.470Z,1002.68
2023-02-25T07:16:27.412Z,1002.67
2023-02-25T07:17:27.405Z,1002.69
2023-02-25T07:18:27.396Z,1002.75
2023-02-25T07:19:27.391Z,1002.76
2023-02-25T07:20:27.382Z,1002.75
2023-02-25T07:21:27.378Z,1002.77
2023-02-25T07:22:27.368Z,1002.73
2023-02-25T07:23:27.369Z,1002.73
2023-02-25T07:24:27.366Z,1002.73
2023-02-25T07:25:27.442Z,1002.73
2023-02-25T07:26:27.363Z,1002.71
2023-02-25T07:27:27.335Z,1002.71
2023-02-25T07:28:27.330Z,1002.66
2023-02-25T07:29:27.323Z,1002.66
2023-02-25T07:30:27.313Z,1002.65
2023-02-25T07:31:27.870Z,1002.66
2023-02-25T07:32:27.566Z,1002.65
2023-02-25T07:33:27.315Z,1002.64
2023-02-25T07:34:27.287Z,1002.65
2023-02-25T07:35:27.289Z,1002.64
2023-02-25T07:36:27.280Z,1002.66
2023-02-25T07:37:27.269Z,1002.70
2023-02-25T07:38:27.263Z,1002.63
2023-02-25T07:39:27.265Z,1002.64
2023-02-25T07:40:27.252Z,1002.62
2023-02-25T07:41:27.244Z,1002.59
2023-02-25T07:42:27.254Z,1002.62
2023-02-25T07:43:27.230Z,1002.60
2023-02-25T07:44:27.225Z,1002.65
2023-02-25T07:45:27.218Z,1002.64
2023-02-25T07:46:27.309Z,1002.67
2023-02-25T07:47:27.212Z,1002.66
2023-02-25T07:48:27.204Z,1002.76
2023-02-25T07:49:27.192Z,1002.73
2023-02-25T07:50:27.190Z,1002.70
2023-02-25T07:51:27.296Z,1002.67
2023-02-25T07:52:27.169Z,1002.69
2023-02-25T07:53:27.169Z,1002.68
2023-02-25T07:54:27.187Z,1002.70
2023-02-25T07:55:27.176Z,1002.71
2023-02-25T07:56:27.144Z,1002.77
2023-02-25T07:57:27.137Z,1002.81
2023-02-25T07:58:27.157Z,1002.81
2023-02-25T07:59:27.126Z,1002.80
2023-02-25T08:00:27.165Z,1002.80
2023-02-25T08:01:27.115Z,1002.80
2023-02-25T08:02:27.179Z,1002.84
2023-02-25T08:03:27.100Z,1002.88
2023-02-25T08:04:27.111Z,1002.83
2023-02-25T08:05:27.089Z,1002.81
2023-02-25T08:06:27.100Z,1002.84
2023-02-25T08:07:27.908Z,1002.84
2023-02-25T08:08:27.064Z,1002.85
2023-02-25T08:09:27.060Z,1002.88
2023-02-25T08:10:27.091Z,1002.84
2023-02-25T08:11:27.223Z,1002.82
2023-02-25T08:12:27.036Z,1002.83
2023-02-25T08:13:27.034Z,1002.86
2023-02-25T08:14:27.042Z,1002.88
2023-02-25T08:15:27.233Z,1002.85
2023-02-25T08:16:27.009Z,1002.84
2023-02-25T08:17:27.012Z,1002.81
2023-02-25T08:18:26.995Z,1002.86
2023-02-25T08:19:26.999Z,1002.89
2023-02-25T08:20:26.985Z,1002.91
2023-02-25T08:21:27.178Z,1002.91
2023-02-25T08:22:26.968Z,1002.90
2023-02-25T08:23:26.960Z,1002.90
2023-02-25T08:24:26.953Z,1002.90
2023-02-25T08:25:26.952Z,1002.92
2023-02-25T08:26:26.956Z,1002.92
2023-02-25T08:27:26.960Z,1002.94
2023-02-25T08:28:26.930Z,1002.90
2023-02-25T08:29:26.925Z,1002.91
2023-02-25T08:30:26.965Z,1002.93
2023-02-25T08:31:27.432Z,1002.97
2023-02-25T08:32:27.034Z,1002.98
2023-02-25T08:33:26.897Z,1003.03
2023-02-25T08:34:26.890Z,1002.97
2023-02-25T08:35:26.890Z,1003.00
2023-02-25T08:36:26.901Z,1003.07
2023-02-25T08:37:26.875Z,1003.07
2023-02-25T08:38:26.897Z,1003.09
2023-02-25T08:39:26.852Z,1003.08
2023-02-25T08:40:26.857Z,1003.09
2023-02-25T08:41:27.042Z,1003.10
2023-02-25T08:42:26.841Z,1003.14
2023-02-25T08:43:26.825Z,1003.12
2023-02-25T08:44:26.840Z,1003.15
2023-02-25T08:45:26.815Z,1003.14
2023-02-25T08:46:26.961Z,1003.19
2023-02-25T08:47:26.797Z,1003.19
2023-02-25T08:48:26.799Z,1003.23
2023-02-25T08:49:26.789Z,1003.22
2023-02-25T08:50:26.788Z,1003.25
2023-02-25T08:51:26.880Z,1003.25
2023-02-25T08:52:26.764Z,1003.33
2023-02-25T08:53:26.754Z,1003.29
2023-02-25T08:54:26.750Z,1003.22
2023-02-25T08:55:26.752Z,1003.20
2023-02-25T08:56:26.734Z,1003.21
2023-02-25T08:57:26.723Z,1003.24
2023-02-25T08:58:26.721Z,1003.18
2023-02-25T08:59:26.713Z,1003.17
2023-02-25T09:00:26.716Z,1003.13
2023-02-25T09:01:27.142Z,1003.11
2023-02-25T09:02:26.713Z,1003.09
2023-02-25T09:03:26.680Z,1003.17
2023-02-25T09:04:26.811Z,1003.14
2023-02-25T09:05:26.667Z,1003.16
2023-02-25T09:06:26.667Z,1003.15
2023-02-25T09:07:26.666Z,1003.07
2023-02-25T09:08:26.647Z,1003.11
2023-02-25T09:09:26.643Z,1003.13
2023-02-25T09:10:26.641Z,1003.11
2023-02-25T09:11:27.029Z,1003.14
2023-02-25T09:12:26.619Z,1003.13
2023-02-25T09:13:26.622Z,1003.15
2023-02-25T09:14:26.609Z,1003.26
2023-02-25T09:15:26.595Z,1003.26
2023-02-25T09:16:26.627Z,1003.32
2023-02-25T09:17:26.586Z,1003.28
2023-02-25T09:18:26.615Z,1003.31
2023-02-25T09:19:26.566Z,1003.28
2023-02-25T09:20:26.559Z,1003.32
2023-02-25T09:21:26.554Z,1003.38
2023-02-25T09:22:26.570Z,1003.37
2023-02-25T09:23:26.543Z,1003.41
2023-02-25T09:24:26.535Z,1003.44
2023-02-25T09:25:26.525Z,1003.49
2023-02-25T09:26:26.517Z,1003.51
2023-02-25T09:27:26.513Z,1003.42
2023-02-25T09:28:26.505Z,1003.45
2023-02-25T09:29:26.496Z,1003.41
2023-02-25T09:30:26.532Z,1003.34
2023-02-25T09:31:27.073Z,1003.42
2023-02-25T09:32:26.619Z,1003.38
2023-02-25T09:33:26.521Z,1003.35
2023-02-25T09:34:26.518Z,1003.41
2023-02-25T09:35:26.536Z,1003.43
2023-02-25T09:36:26.510Z,1003.39
2023-02-25T09:37:26.438Z,1003.49
2023-02-25T09:38:26.435Z,1003.47
2023-02-25T09:39:26.429Z,1003.44
2023-02-25T09:40:26.418Z,1003.47
2023-02-25T09:41:26.414Z,1003.44
2023-02-25T09:42:26.407Z,1003.48
2023-02-25T09:43:26.401Z,1003.49
2023-02-25T09:44:26.390Z,1003.51
2023-02-25T09:45:26.418Z,1003.51
2023-02-25T09:46:26.384Z,1003.52
2023-02-25T09:47:26.391Z,1003.53
2023-02-25T09:48:26.363Z,1003.49
2023-02-25T09:49:26.356Z,1003.52
2023-02-25T09:50:26.374Z,1003.54
2023-02-25T09:51:26.345Z,1003.54
2023-02-25T09:52:26.334Z,1003.59
2023-02-25T09:53:26.331Z,1003.63
2023-02-25T09:54:26.322Z,1003.64
2023-02-25T09:55:26.322Z,1003.65
2023-02-25T09:56:26.308Z,1003.67
2023-02-25T09:57:26.304Z,1003.75
2023-02-25T09:58:26.297Z,1003.72
2023-02-25T09:59:26.293Z,1003.77
2023-02-25T10:00:26.300Z,1003.79
2023-02-25T10:01:26.274Z,1003.81
2023-02-25T10:02:26.307Z,1003.81
2023-02-25T10:03:26.347Z,1003.84
2023-02-25T10:04:26.264Z,1003.82
2023-02-25T10:05:26.248Z,1003.87
2023-02-25T10:06:26.272Z,1003.83
2023-02-25T10:07:26.235Z,1003.81
2023-02-25T10:08:26.229Z,1003.78
2023-02-25T10:09:26.223Z,1003.77
2023-02-25T10:10:26.224Z,1003.86
2023-02-25T10:11:26.207Z,1003.85
2023-02-25T10:12:26.203Z,1003.93
2023-02-25T10:13:26.198Z,1003.94
2023-02-25T10:14:26.189Z,1003.99
2023-02-25T10:15:26.190Z,1004.15
2023-02-25T10:16:26.278Z,1004.17
2023-02-25T10:17:26.165Z,1004.11
2023-02-25T10:18:26.192Z,1004.13
2023-02-25T10:19:26.155Z,1004.04
2023-02-25T10:20:26.345Z,1004.09
2023-02-25T10:21:26.314Z,1004.09
2023-02-25T10:22:26.177Z,1004.12
2023-02-25T10:23:26.137Z,1004.16
2023-02-25T10:24:26.125Z,1004.15
2023-02-25T10:25:26.110Z,1004.21
2023-02-25T10:26:26.105Z,1004.22
2023-02-25T10:27:26.107Z,1004.21
2023-02-25T10:28:26.092Z,1004.41
2023-02-25T10:29:26.093Z,1004.39
2023-02-25T10:30:26.148Z,1004.46
2023-02-25T10:31:26.656Z,1004.35
2023-02-25T10:32:26.208Z,1004.36
2023-02-25T10:33:26.058Z,1004.40
2023-02-25T10:34:26.153Z,1004.38
2023-02-25T10:35:26.037Z,1004.45
2023-02-25T10:36:26.032Z,1004.54
2023-02-25T10:37:26.022Z,1004.51
2023-02-25T10:38:26.036Z,1004.57
2023-02-25T10:39:26.005Z,1004.56
2023-02-25T10:40:25.995Z,1004.57
2023-02-25T10:41:26.153Z,1004.50
2023-02-25T10:42:25.981Z,1004.50
2023-02-25T10:43:25.976Z,1004.51
2023-02-25T10:44:25.962Z,1004.48
2023-02-25T10:45:25.971Z,1004.51
2023-02-25T10:46:25.987Z,1004.48
2023-02-25T10:47:25.948Z,1004.54
2023-02-25T10:48:25.934Z,1004.54
2023-02-25T10:49:25.947Z,1004.54
2023-02-25T10:50:39.268Z,1004.56
2023-02-25T10:51:26.244Z,1004.54
2023-02-25T10:52:25.905Z,1004.59
2023-02-25T10:53:25.928Z,1004.55
2023-02-25T10:54:25.905Z,1004.58
2023-02-25T10:55:25.873Z,1004.54
2023-02-25T10:56:25.864Z,1004.62
2023-02-25T10:57:25.927Z,1004.64
2023-02-25T10:58:25.854Z,1004.63
2023-02-25T10:59:25.843Z,1004.63
2023-02-25T11:00:25.837Z,1004.64
2023-02-25T11:01:26.314Z,1004.62
2023-02-25T11:02:25.967Z,1004.69
2023-02-25T11:03:25.819Z,1004.65
2023-02-25T11:04:25.800Z,1004.66
2023-02-25T11:05:25.794Z,1004.61
2023-02-25T11:06:25.788Z,1004.59
2023-02-25T11:07:25.908Z,1004.66
2023-02-25T11:08:25.785Z,1004.63
2023-02-25T11:09:25.761Z,1004.65
2023-02-25T11:10:25.770Z,1004.60
2023-02-25T11:11:26.068Z,1004.59
2023-02-25T11:12:25.739Z,1004.67
2023-02-25T11:13:25.745Z,1004.67
2023-02-25T11:14:25.724Z,1004.60
2023-02-25T11:15:38.160Z,1004.52
2023-02-25T11:16:25.764Z,1004.57
2023-02-25T11:17:25.696Z,1004.58
2023-02-25T11:18:25.693Z,1004.61
2023-02-25T11:19:25.681Z,1004.58
2023-02-25T11:20:25.673Z,1004.61
2023-02-25T11:21:25.872Z,1004.56
2023-02-25T11:22:25.659Z,1004.61
2023-02-25T11:23:28.087Z,1004.59
2023-02-25T11:24:25.643Z,1004.58
2023-02-25T11:25:26.086Z,1004.57
2023-02-25T11:26:25.650Z,1004.57
2023-02-25T11:27:25.619Z,1004.57
2023-02-25T11:28:25.612Z,1004.59
2023-02-25T11:29:25.645Z,1004.57
2023-02-25T11:30:25.599Z,1004.60
2023-02-25T11:31:25.938Z,1004.61
2023-02-25T11:32:25.799Z,1004.62
2023-02-25T11:33:25.575Z,1004.54
2023-02-25T11:34:25.573Z,1004.54
2023-02-25T11:35:25.582Z,1004.57
2023-02-25T11:36:26.013Z,1004.61
2023-02-25T11:37:25.541Z,1004.61
2023-02-25T11:38:25.537Z,1004.56
2023-02-25T11:39:25.530Z,1004.59
2023-02-25T11:40:25.524Z,1004.55
2023-02-25T11:41:25.851Z,1004.58
2023-02-25T11:42:25.531Z,1004.55
2023-02-25T11:43:25.519Z,1004.56
2023-02-25T11:44:25.486Z,1004.57
2023-02-25T11:45:25.478Z,1004.59
2023-02-25T11:46:25.779Z,1004.55
2023-02-25T11:47:25.494Z,1004.53
2023-02-25T11:48:25.455Z,1004.55
2023-02-25T11:49:25.446Z,1004.53
2023-02-25T11:50:25.445Z,1004.57
2023-02-25T11:51:25.434Z,1004.64
2023-02-25T11:52:25.434Z,1004.59
2023-02-25T11:53:25.529Z,1004.62
2023-02-25T11:54:25.410Z,1004.58
2023-02-25T11:55:25.404Z,1004.56
2023-02-25T11:56:25.655Z,1004.61
2023-02-25T11:57:25.385Z,1004.54
2023-02-25T11:58:25.403Z,1004.54
2023-02-25T11:59:25.370Z,1004.52
2023-02-25T12:00:25.364Z,1004.53
2023-02-25T12:01:25.355Z,1004.51
2023-02-25T12:02:25.417Z,1004.49
2023-02-25T12:03:25.342Z,1004.46
2023-02-25T12:04:25.337Z,1004.45
2023-02-25T12:05:25.434Z,1004.47